sensor_id;sensor_type;location;lat;lon;timestamp;temperature;humidity
6174;DHT22;3120;48.796;9.796;2022-07-29T00:01:49;17.40;99.90
6174;DHT22;3120;48.796;9.796;2022-07-29T00:04:14;17.40;99.90
6174;DHT22;3120;48.796;9.796;2022-07-29T00:06:40;18.10;99.90
6174;DHT22;3120;48.796;9.796;2022-07-29T00:09:06;17.40;99.90
6174;DHT22;3120;48.796;9.796;2022-07-29T00:11:32;18.00;99.90
6174;DHT22;3120;48.796;9.796;2022-07-29T00:13:58;17.40;99.90
6174;DHT22;3120;48.796;9.796;2022-07-29T00:16:23;17.40;99.90
6174;DHT22;3120;48.796;9.796;2022-07-29T00:18:49;17.30;99.90
6174;DHT22;3120;48.796;9.796;2022-07-29T00:21:14;17.30;99.90
6174;DHT22;3120;48.796;9.796;2022-07-29T00:23:40;17.40;99.90
6174;DHT22;3120;48.796;9.796;2022-07-29T00:26:06;17.30;99.90
6174;DHT22;3120;48.796;9.796;2022-07-29T00:28:31;17.30;99.90
6174;DHT22;3120;48.796;9.796;2022-07-29T00:30:57;17.30;99.90
6174;DHT22;3120;48.796;9.796;2022-07-29T00:33:22;17.30;99.90
6174;DHT22;3120;48.796;9.796;2022-07-29T00:35:49;17.30;99.90
6174;DHT22;3120;48.796;9.796;2022-07-29T00:38:17;17.30;99.90
6174;DHT22;3120;48.796;9.796;2022-07-29T00:40:44;18.10;99.90
6174;DHT22;3120;48.796;9.796;2022-07-29T00:43:10;17.30;99.90
6174;DHT22;3120;48.796;9.796;2022-07-29T00:45:36;17.70;99.90
6174;DHT22;3120;48.796;9.796;2022-07-29T00:48:03;17.50;99.90
6174;DHT22;3120;48.796;9.796;2022-07-29T00:50:30;17.30;99.90
6174;DHT22;3120;48.796;9.796;2022-07-29T00:52:56;17.30;99.90
6174;DHT22;3120;48.796;9.796;2022-07-29T00:55:22;18.00;99.90
6174;DHT22;3120;48.796;9.796;2022-07-29T00:57:47;17.50;99.90
6174;DHT22;3120;48.796;9.796;2022-07-29T01:00:19;17.50;99.90
6174;DHT22;3120;48.796;9.796;2022-07-29T01:02:46;17.50;99.90
6174;DHT22;3120;48.796;9.796;2022-07-29T01:05:15;17.50;99.90
6174;DHT22;3120;48.796;9.796;2022-07-29T01:07:41;17.50;99.90
6174;DHT22;3120;48.796;9.796;2022-07-29T01:10:09;17.50;99.90
6174;DHT22;3120;48.796;9.796;2022-07-29T01:12:37;17.50;99.90
6174;DHT22;3120;48.796;9.796;2022-07-29T01:15:05;18.10;99.90
6174;DHT22;3120;48.796;9.796;2022-07-29T01:20:44;17.40;99.90
6174;DHT22;3120;48.796;9.796;2022-07-29T01:29:24;17.40;99.90
6174;DHT22;3120;48.796;9.796;2022-07-29T01:32:11;17.40;99.90
6174;DHT22;3120;48.796;9.796;2022-07-29T01:34:57;17.50;99.90
6174;DHT22;3120;48.796;9.796;2022-07-29T01:37:25;17.50;99.90
6174;DHT22;3120;48.796;9.796;2022-07-29T01:39:54;17.50;99.90
6174;DHT22;3120;48.796;9.796;2022-07-29T01:42:36;17.50;99.90
6174;DHT22;3120;48.796;9.796;2022-07-29T01:45:20;17.50;99.90
6174;DHT22;3120;48.796;9.796;2022-07-29T01:48:00;17.40;99.90
6174;DHT22;3120;48.796;9.796;2022-07-29T01:50:35;17.40;99.90
6174;DHT22;3120;48.796;9.796;2022-07-29T01:53:04;17.40;99.90
6174;DHT22;3120;48.796;9.796;2022-07-29T01:55:35;17.50;99.90
6174;DHT22;3120;48.796;9.796;2022-07-29T01:58:03;17.50;99.90
6174;DHT22;3120;48.796;9.796;2022-07-29T02:00:30;18.90;99.90
6174;DHT22;3120;48.796;9.796;2022-07-29T02:02:59;17.40;99.90
6174;DHT22;3120;48.796;9.796;2022-07-29T02:05:27;17.60;99.90
6174;DHT22;3120;48.796;9.796;2022-07-29T02:07:56;17.30;99.90
6174;DHT22;3120;48.796;9.796;2022-07-29T02:10:26;17.20;99.90
6174;DHT22;3120;48.796;9.796;2022-07-29T02:12:54;17.30;99.90
6174;DHT22;3120;48.796;9.796;2022-07-29T02:15:25;17.50;99.90
6174;DHT22;3120;48.796;9.796;2022-07-29T02:17:58;17.20;99.90
6174;DHT22;3120;48.796;9.796;2022-07-29T02:20:26;17.20;99.90
6174;DHT22;3120;48.796;9.796;2022-07-29T02:22:54;17.20;99.90
6174;DHT22;3120;48.796;9.796;2022-07-29T02:25:21;17.10;99.90
6174;DHT22;3120;48.796;9.796;2022-07-29T02:27:49;17.10;99.90
6174;DHT22;3120;48.796;9.796;2022-07-29T02:30:16;18.30;99.90
6174;DHT22;3120;48.796;9.796;2022-07-29T02:32:43;17.20;99.90
6174;DHT22;3120;48.796;9.796;2022-07-29T02:35:13;17.40;99.90
6174;DHT22;3120;48.796;9.796;2022-07-29T02:37:40;17.20;99.90
6174;DHT22;3120;48.796;9.796;2022-07-29T02:40:10;17.20;99.90
6174;DHT22;3120;48.796;9.796;2022-07-29T02:42:37;17.20;99.90
6174;DHT22;3120;48.796;9.796;2022-07-29T02:45:05;17.20;99.90
6174;DHT22;3120;48.796;9.796;2022-07-29T02:47:43;17.20;99.90
6174;DHT22;3120;48.796;9.796;2022-07-29T02:50:23;17.20;99.90
6174;DHT22;3120;48.796;9.796;2022-07-29T02:53:09;17.10;99.90
6174;DHT22;3120;48.796;9.796;2022-07-29T02:55:46;17.10;99.90
6174;DHT22;3120;48.796;9.796;2022-07-29T02:58:33;17.00;99.90
6174;DHT22;3120;48.796;9.796;2022-07-29T03:01:04;16.90;99.90
6174;DHT22;3120;48.796;9.796;2022-07-29T03:06:03;16.90;99.90
6174;DHT22;3120;48.796;9.796;2022-07-29T03:08:30;16.90;99.90
6174;DHT22;3120;48.796;9.796;2022-07-29T03:10:57;16.90;99.90
6174;DHT22;3120;48.796;9.796;2022-07-29T03:13:24;17.10;99.90
6174;DHT22;3120;48.796;9.796;2022-07-29T03:15:50;17.00;99.90
6174;DHT22;3120;48.796;9.796;2022-07-29T03:18:16;17.00;99.90
6174;DHT22;3120;48.796;9.796;2022-07-29T03:20:42;17.00;99.90
6174;DHT22;3120;48.796;9.796;2022-07-29T03:23:08;17.10;99.90
6174;DHT22;3120;48.796;9.796;2022-07-29T03:25:34;17.10;99.90
6174;DHT22;3120;48.796;9.796;2022-07-29T03:28:00;17.00;99.90
6174;DHT22;3120;48.796;9.796;2022-07-29T03:30:26;16.90;99.90
6174;DHT22;3120;48.796;9.796;2022-07-29T03:32:52;16.90;99.90
6174;DHT22;3120;48.796;9.796;2022-07-29T03:35:18;16.80;99.90
6174;DHT22;3120;48.796;9.796;2022-07-29T03:37:45;16.80;99.90
6174;DHT22;3120;48.796;9.796;2022-07-29T03:40:16;16.80;99.90
6174;DHT22;3120;48.796;9.796;2022-07-29T03:42:44;16.80;99.90
6174;DHT22;3120;48.796;9.796;2022-07-29T03:45:13;16.80;99.90
6174;DHT22;3120;48.796;9.796;2022-07-29T03:47:48;16.80;99.90
6174;DHT22;3120;48.796;9.796;2022-07-29T03:50:16;16.80;99.90
6174;DHT22;3120;48.796;9.796;2022-07-29T03:52:42;16.80;99.90
6174;DHT22;3120;48.796;9.796;2022-07-29T03:55:09;16.80;99.90
6174;DHT22;3120;48.796;9.796;2022-07-29T03:57:35;16.80;99.90
6174;DHT22;3120;48.796;9.796;2022-07-29T04:00:03;16.80;99.90
6174;DHT22;3120;48.796;9.796;2022-07-29T04:02:30;16.80;99.90
6174;DHT22;3120;48.796;9.796;2022-07-29T04:04:56;16.80;99.90
6174;DHT22;3120;48.796;9.796;2022-07-29T04:07:22;16.80;99.90
6174;DHT22;3120;48.796;9.796;2022-07-29T04:09:48;16.70;99.90
6174;DHT22;3120;48.796;9.796;2022-07-29T04:12:13;16.70;99.90
6174;DHT22;3120;48.796;9.796;2022-07-29T04:14:39;16.70;99.90
6174;DHT22;3120;48.796;9.796;2022-07-29T04:17:05;16.70;99.90
6174;DHT22;3120;48.796;9.796;2022-07-29T04:19:31;16.70;99.90
6174;DHT22;3120;48.796;9.796;2022-07-29T04:22:00;16.60;99.90
6174;DHT22;3120;48.796;9.796;2022-07-29T04:24:26;16.70;99.90
6174;DHT22;3120;48.796;9.796;2022-07-29T04:26:52;16.70;99.90
6174;DHT22;3120;48.796;9.796;2022-07-29T04:29:18;16.80;99.90
6174;DHT22;3120;48.796;9.796;2022-07-29T04:31:45;16.80;99.90
6174;DHT22;3120;48.796;9.796;2022-07-29T04:34:11;16.80;99.90
6174;DHT22;3120;48.796;9.796;2022-07-29T04:36:37;16.80;99.90
6174;DHT22;3120;48.796;9.796;2022-07-29T04:39:03;16.80;99.90
6174;DHT22;3120;48.796;9.796;2022-07-29T04:41:29;16.80;99.90
6174;DHT22;3120;48.796;9.796;2022-07-29T04:43:55;16.80;99.90
6174;DHT22;3120;48.796;9.796;2022-07-29T04:46:21;16.80;99.90
6174;DHT22;3120;48.796;9.796;2022-07-29T04:48:47;16.90;99.90
6174;DHT22;3120;48.796;9.796;2022-07-29T04:51:16;16.90;99.90
6174;DHT22;3120;48.796;9.796;2022-07-29T04:53:42;17.00;99.90
6174;DHT22;3120;48.796;9.796;2022-07-29T04:56:07;17.00;99.90
6174;DHT22;3120;48.796;9.796;2022-07-29T04:58:37;17.10;99.90
6174;DHT22;3120;48.796;9.796;2022-07-29T05:01:03;17.10;99.90
6174;DHT22;3120;48.796;9.796;2022-07-29T05:03:29;17.10;99.90
6174;DHT22;3120;48.796;9.796;2022-07-29T05:05:54;17.10;99.90
6174;DHT22;3120;48.796;9.796;2022-07-29T05:08:20;17.40;99.90
6174;DHT22;3120;48.796;9.796;2022-07-29T05:10:45;17.20;99.90
6174;DHT22;3120;48.796;9.796;2022-07-29T05:13:11;17.20;99.90
6174;DHT22;3120;48.796;9.796;2022-07-29T05:15:37;17.10;99.90
6174;DHT22;3120;48.796;9.796;2022-07-29T05:18:03;17.10;99.90
6174;DHT22;3120;48.796;9.796;2022-07-29T05:20:30;17.10;99.90
6174;DHT22;3120;48.796;9.796;2022-07-29T05:22:57;17.10;99.90
6174;DHT22;3120;48.796;9.796;2022-07-29T05:25:24;17.10;99.90
6174;DHT22;3120;48.796;9.796;2022-07-29T05:27:49;17.20;99.90
6174;DHT22;3120;48.796;9.796;2022-07-29T05:30:15;17.70;99.90
6174;DHT22;3120;48.796;9.796;2022-07-29T05:32:41;18.00;99.90
6174;DHT22;3120;48.796;9.796;2022-07-29T05:35:07;18.30;99.90
6174;DHT22;3120;48.796;9.796;2022-07-29T05:37:33;18.40;99.90
6174;DHT22;3120;48.796;9.796;2022-07-29T05:39:59;18.30;99.90
6174;DHT22;3120;48.796;9.796;2022-07-29T05:42:25;18.30;99.90
6174;DHT22;3120;48.796;9.796;2022-07-29T05:44:51;18.30;99.90
6174;DHT22;3120;48.796;9.796;2022-07-29T05:47:17;18.20;99.90
6174;DHT22;3120;48.796;9.796;2022-07-29T05:49:42;18.20;99.90
6174;DHT22;3120;48.796;9.796;2022-07-29T05:52:08;18.20;99.90
6174;DHT22;3120;48.796;9.796;2022-07-29T05:54:34;18.20;99.90
6174;DHT22;3120;48.796;9.796;2022-07-29T05:57:00;18.20;99.90
6174;DHT22;3120;48.796;9.796;2022-07-29T05:59:26;18.20;99.90
6174;DHT22;3120;48.796;9.796;2022-07-29T06:01:52;18.30;99.90
6174;DHT22;3120;48.796;9.796;2022-07-29T06:04:18;18.60;99.90
6174;DHT22;3120;48.796;9.796;2022-07-29T06:06:43;18.20;99.90
6174;DHT22;3120;48.796;9.796;2022-07-29T06:09:09;18.20;99.90
6174;DHT22;3120;48.796;9.796;2022-07-29T06:11:35;18.20;99.90
6174;DHT22;3120;48.796;9.796;2022-07-29T06:14:00;18.20;99.90
6174;DHT22;3120;48.796;9.796;2022-07-29T06:16:28;18.10;99.90
6174;DHT22;3120;48.796;9.796;2022-07-29T06:18:53;18.20;99.90
6174;DHT22;3120;48.796;9.796;2022-07-29T06:21:19;18.40;99.90
6174;DHT22;3120;48.796;9.796;2022-07-29T06:23:45;18.70;99.90
6174;DHT22;3120;48.796;9.796;2022-07-29T06:26:11;19.20;99.90
6174;DHT22;3120;48.796;9.796;2022-07-29T06:28:37;19.70;99.90
6174;DHT22;3120;48.796;9.796;2022-07-29T06:31:03;20.00;99.90
6174;DHT22;3120;48.796;9.796;2022-07-29T06:33:30;20.10;99.90
6174;DHT22;3120;48.796;9.796;2022-07-29T06:35:55;20.20;99.90
6174;DHT22;3120;48.796;9.796;2022-07-29T06:38:21;20.20;99.90
6174;DHT22;3120;48.796;9.796;2022-07-29T06:40:47;20.30;99.90
6174;DHT22;3120;48.796;9.796;2022-07-29T06:43:35;20.30;99.90
6174;DHT22;3120;48.796;9.796;2022-07-29T06:46:09;20.30;99.90
6174;DHT22;3120;48.796;9.796;2022-07-29T06:48:35;20.20;99.90
6174;DHT22;3120;48.796;9.796;2022-07-29T06:51:01;20.10;99.90
6174;DHT22;3120;48.796;9.796;2022-07-29T06:53:28;19.90;99.90
6174;DHT22;3120;48.796;9.796;2022-07-29T06:55:54;19.80;99.90
6174;DHT22;3120;48.796;9.796;2022-07-29T06:58:20;19.80;99.90
6174;DHT22;3120;48.796;9.796;2022-07-29T07:00:48;19.80;99.90
6174;DHT22;3120;48.796;9.796;2022-07-29T07:03:15;20.20;99.90
6174;DHT22;3120;48.796;9.796;2022-07-29T07:05:41;20.90;99.90
6174;DHT22;3120;48.796;9.796;2022-07-29T07:08:07;21.80;55.60
6174;DHT22;3120;48.796;9.796;2022-07-29T07:10:33;22.70;1.00
6174;DHT22;3120;48.796;9.796;2022-07-29T07:12:59;22.90;1.00
6174;DHT22;3120;48.796;9.796;2022-07-29T07:15:25;23.00;99.90
6174;DHT22;3120;48.796;9.796;2022-07-29T07:17:51;23.10;1.00
6174;DHT22;3120;48.796;9.796;2022-07-29T07:20:17;22.80;1.00
6174;DHT22;3120;48.796;9.796;2022-07-29T07:22:43;22.60;1.00
6174;DHT22;3120;48.796;9.796;2022-07-29T07:25:09;22.40;1.00
6174;DHT22;3120;48.796;9.796;2022-07-29T07:27:36;22.30;1.00
6174;DHT22;3120;48.796;9.796;2022-07-29T07:30:03;22.70;1.00
6174;DHT22;3120;48.796;9.796;2022-07-29T07:32:31;23.40;99.90
6174;DHT22;3120;48.796;9.796;2022-07-29T07:34:57;24.50;1.00
6174;DHT22;3120;48.796;9.796;2022-07-29T07:37:23;24.90;99.90
6174;DHT22;3120;48.796;9.796;2022-07-29T07:39:50;25.20;1.00
6174;DHT22;3120;48.796;9.796;2022-07-29T07:42:16;25.60;99.90
6174;DHT22;3120;48.796;9.796;2022-07-29T07:44:42;25.80;1.00
6174;DHT22;3120;48.796;9.796;2022-07-29T07:47:08;26.00;1.00
6174;DHT22;3120;48.796;9.796;2022-07-29T07:49:33;26.10;99.90
6174;DHT22;3120;48.796;9.796;2022-07-29T07:51:59;26.00;1.00
6174;DHT22;3120;48.796;9.796;2022-07-29T07:54:24;25.80;1.00
6174;DHT22;3120;48.796;9.796;2022-07-29T07:56:50;25.70;76.90
6174;DHT22;3120;48.796;9.796;2022-07-29T07:59:16;26.20;99.90
6174;DHT22;3120;48.796;9.796;2022-07-29T08:01:42;26.30;1.00
6174;DHT22;3120;48.796;9.796;2022-07-29T08:04:08;26.40;99.90
6174;DHT22;3120;48.796;9.796;2022-07-29T08:06:34;26.80;1.00
6174;DHT22;3120;48.796;9.796;2022-07-29T08:09:02;27.40;1.00
6174;DHT22;3120;48.796;9.796;2022-07-29T08:11:27;27.40;1.00
6174;DHT22;3120;48.796;9.796;2022-07-29T08:13:54;26.80;1.00
6174;DHT22;3120;48.796;9.796;2022-07-29T08:16:19;26.50;99.90
6174;DHT22;3120;48.796;9.796;2022-07-29T08:18:45;26.10;97.00
6174;DHT22;3120;48.796;9.796;2022-07-29T08:21:12;25.90;1.00
6174;DHT22;3120;48.796;9.796;2022-07-29T08:23:38;25.90;1.00
6174;DHT22;3120;48.796;9.796;2022-07-29T08:26:08;26.00;1.00
6174;DHT22;3120;48.796;9.796;2022-07-29T08:28:42;26.30;1.00
6174;DHT22;3120;48.796;9.796;2022-07-29T08:31:12;26.50;1.00
6174;DHT22;3120;48.796;9.796;2022-07-29T08:33:38;26.20;99.90
6174;DHT22;3120;48.796;9.796;2022-07-29T08:36:05;25.90;1.00
6174;DHT22;3120;48.796;9.796;2022-07-29T08:38:31;25.90;1.00
6174;DHT22;3120;48.796;9.796;2022-07-29T08:40:58;26.10;1.00
6174;DHT22;3120;48.796;9.796;2022-07-29T08:43:24;25.90;1.00
6174;DHT22;3120;48.796;9.796;2022-07-29T08:45:51;25.90;1.00
6174;DHT22;3120;48.796;9.796;2022-07-29T08:48:19;26.00;1.00
6174;DHT22;3120;48.796;9.796;2022-07-29T08:50:55;26.10;33.60
6174;DHT22;3120;48.796;9.796;2022-07-29T08:53:21;26.00;1.00
6174;DHT22;3120;48.796;9.796;2022-07-29T08:55:50;26.20;99.90
6174;DHT22;3120;48.796;9.796;2022-07-29T08:58:17;26.60;1.00
6174;DHT22;3120;48.796;9.796;2022-07-29T09:00:51;26.30;1.00
6174;DHT22;3120;48.796;9.796;2022-07-29T09:03:21;26.80;99.90
6174;DHT22;3120;48.796;9.796;2022-07-29T09:05:48;27.10;99.90
6174;DHT22;3120;48.796;9.796;2022-07-29T09:08:14;27.40;99.90
6174;DHT22;3120;48.796;9.796;2022-07-29T09:10:40;27.50;99.90
6174;DHT22;3120;48.796;9.796;2022-07-29T09:13:06;27.70;99.90
6174;DHT22;3120;48.796;9.796;2022-07-29T09:15:31;27.60;99.90
6174;DHT22;3120;48.796;9.796;2022-07-29T09:17:57;27.50;99.90
6174;DHT22;3120;48.796;9.796;2022-07-29T09:20:26;27.60;99.90
6174;DHT22;3120;48.796;9.796;2022-07-29T09:23:12;27.70;49.80
6174;DHT22;3120;48.796;9.796;2022-07-29T09:25:39;27.80;99.90
6174;DHT22;3120;48.796;9.796;2022-07-29T09:28:13;27.90;27.50
6174;DHT22;3120;48.796;9.796;2022-07-29T09:30:53;27.30;99.90
6174;DHT22;3120;48.796;9.796;2022-07-29T09:33:20;27.00;99.90
6174;DHT22;3120;48.796;9.796;2022-07-29T09:35:59;27.50;99.90
6174;DHT22;3120;48.796;9.796;2022-07-29T09:38:24;27.70;39.30
6174;DHT22;3120;48.796;9.796;2022-07-29T09:40:58;27.60;92.80
6174;DHT22;3120;48.796;9.796;2022-07-29T09:43:23;27.40;97.80
6174;DHT22;3120;48.796;9.796;2022-07-29T09:45:49;27.30;84.10
6174;DHT22;3120;48.796;9.796;2022-07-29T09:48:23;27.10;99.90
6174;DHT22;3120;48.796;9.796;2022-07-29T09:50:49;27.30;99.90
6174;DHT22;3120;48.796;9.796;2022-07-29T09:53:33;27.30;99.90
6174;DHT22;3120;48.796;9.796;2022-07-29T09:55:59;27.40;99.90
6174;DHT22;3120;48.796;9.796;2022-07-29T09:58:25;27.20;99.90
6174;DHT22;3120;48.796;9.796;2022-07-29T10:00:52;27.20;99.90
6174;DHT22;3120;48.796;9.796;2022-07-29T10:03:18;26.80;99.90
6174;DHT22;3120;48.796;9.796;2022-07-29T10:05:45;26.90;99.90
6174;DHT22;3120;48.796;9.796;2022-07-29T10:08:12;27.20;99.90
6174;DHT22;3120;48.796;9.796;2022-07-29T10:10:42;27.20;99.90
6174;DHT22;3120;48.796;9.796;2022-07-29T10:13:12;27.00;99.90
6174;DHT22;3120;48.796;9.796;2022-07-29T10:15:41;27.10;99.90
6174;DHT22;3120;48.796;9.796;2022-07-29T10:18:10;27.00;99.90
6174;DHT22;3120;48.796;9.796;2022-07-29T10:20:37;27.10;99.90
6174;DHT22;3120;48.796;9.796;2022-07-29T10:23:03;27.30;99.90
6174;DHT22;3120;48.796;9.796;2022-07-29T10:25:28;27.30;1.00
6174;DHT22;3120;48.796;9.796;2022-07-29T10:27:54;27.50;18.30
6174;DHT22;3120;48.796;9.796;2022-07-29T10:30:22;27.60;1.00
6174;DHT22;3120;48.796;9.796;2022-07-29T10:44:19;27.70;90.50
6174;DHT22;3120;48.796;9.796;2022-07-29T10:46:46;27.80;30.70
6174;DHT22;3120;48.796;9.796;2022-07-29T10:49:16;27.70;91.10
6174;DHT22;3120;48.796;9.796;2022-07-29T10:52:09;28.00;76.40
6174;DHT22;3120;48.796;9.796;2022-07-29T10:54:44;28.20;1.40
6174;DHT22;3120;48.796;9.796;2022-07-29T10:59:41;28.30;1.00
6174;DHT22;3120;48.796;9.796;2022-07-29T11:07:23;27.80;1.00
6174;DHT22;3120;48.796;9.796;2022-07-29T11:10:22;26.40;99.90
6174;DHT22;3120;48.796;9.796;2022-07-29T11:12:48;27.60;50.00
6174;DHT22;3120;48.796;9.796;2022-07-29T11:15:21;27.40;66.20
6174;DHT22;3120;48.796;9.796;2022-07-29T11:22:56;27.30;99.90
6174;DHT22;3120;48.796;9.796;2022-07-29T11:25:23;27.30;99.90
6174;DHT22;3120;48.796;9.796;2022-07-29T11:27:49;27.20;99.90
6174;DHT22;3120;48.796;9.796;2022-07-29T11:30:15;27.20;99.90
6174;DHT22;3120;48.796;9.796;2022-07-29T11:32:42;27.20;99.90
6174;DHT22;3120;48.796;9.796;2022-07-29T11:35:23;27.10;99.90
6174;DHT22;3120;48.796;9.796;2022-07-29T11:41:19;27.00;99.90
6174;DHT22;3120;48.796;9.796;2022-07-29T11:43:57;26.90;99.90
6174;DHT22;3120;48.796;9.796;2022-07-29T11:46:48;26.80;99.90
6174;DHT22;3120;48.796;9.796;2022-07-29T11:49:22;26.70;99.90
6174;DHT22;3120;48.796;9.796;2022-07-29T11:51:52;26.50;99.90
6174;DHT22;3120;48.796;9.796;2022-07-29T11:54:24;26.40;99.90
6174;DHT22;3120;48.796;9.796;2022-07-29T11:56:52;26.30;99.90
6174;DHT22;3120;48.796;9.796;2022-07-29T11:59:19;26.10;1.00
6174;DHT22;3120;48.796;9.796;2022-07-29T12:01:54;25.90;1.00
6174;DHT22;3120;48.796;9.796;2022-07-29T12:04:20;25.90;1.00
6174;DHT22;3120;48.796;9.796;2022-07-29T12:06:54;25.80;1.00
6174;DHT22;3120;48.796;9.796;2022-07-29T12:09:22;25.70;1.00
6174;DHT22;3120;48.796;9.796;2022-07-29T12:11:49;25.60;1.00
6174;DHT22;3120;48.796;9.796;2022-07-29T12:14:31;25.60;1.00
6174;DHT22;3120;48.796;9.796;2022-07-29T12:16:59;25.50;1.00
6174;DHT22;3120;48.796;9.796;2022-07-29T12:19:28;25.40;1.00
6174;DHT22;3120;48.796;9.796;2022-07-29T12:21:55;25.40;1.00
6174;DHT22;3120;48.796;9.796;2022-07-29T12:24:23;25.40;99.90
6174;DHT22;3120;48.796;9.796;2022-07-29T12:26:54;25.20;1.00
6174;DHT22;3120;48.796;9.796;2022-07-29T12:29:20;25.10;1.00
6174;DHT22;3120;48.796;9.796;2022-07-29T12:31:51;25.10;99.90
6174;DHT22;3120;48.796;9.796;2022-07-29T12:34:20;25.00;99.90
6174;DHT22;3120;48.796;9.796;2022-07-29T12:36:46;25.00;1.00
6174;DHT22;3120;48.796;9.796;2022-07-29T12:39:12;25.00;10.60
6174;DHT22;3120;48.796;9.796;2022-07-29T12:41:38;25.00;99.90
6174;DHT22;3120;48.796;9.796;2022-07-29T12:44:04;25.10;1.00
6174;DHT22;3120;48.796;9.796;2022-07-29T12:46:30;25.10;99.90
6174;DHT22;3120;48.796;9.796;2022-07-29T12:48:55;25.10;1.00
6174;DHT22;3120;48.796;9.796;2022-07-29T12:51:34;25.00;1.00
6174;DHT22;3120;48.796;9.796;2022-07-29T12:54:15;25.20;99.90
6174;DHT22;3120;48.796;9.796;2022-07-29T12:56:42;25.20;99.90
6174;DHT22;3120;48.796;9.796;2022-07-29T12:59:17;25.20;99.90
6174;DHT22;3120;48.796;9.796;2022-07-29T13:01:44;25.00;1.00
6174;DHT22;3120;48.796;9.796;2022-07-29T13:04:10;25.00;99.90
6174;DHT22;3120;48.796;9.796;2022-07-29T13:06:44;24.90;1.00
6174;DHT22;3120;48.796;9.796;2022-07-29T13:09:12;24.80;99.90
6174;DHT22;3120;48.796;9.796;2022-07-29T13:11:42;24.90;99.90
6174;DHT22;3120;48.796;9.796;2022-07-29T13:14:11;24.80;1.00
6174;DHT22;3120;48.796;9.796;2022-07-29T13:19:32;24.40;1.00
6174;DHT22;3120;48.796;9.796;2022-07-29T13:21:58;24.30;1.00
6174;DHT22;3120;48.796;9.796;2022-07-29T13:24:24;24.30;99.90
6174;DHT22;3120;48.796;9.796;2022-07-29T13:26:49;24.20;1.00
6174;DHT22;3120;48.796;9.796;2022-07-29T13:29:17;24.20;1.00
6174;DHT22;3120;48.796;9.796;2022-07-29T13:31:43;24.20;1.00
6174;DHT22;3120;48.796;9.796;2022-07-29T13:34:09;24.10;1.00
6174;DHT22;3120;48.796;9.796;2022-07-29T13:36:34;24.10;99.90
6174;DHT22;3120;48.796;9.796;2022-07-29T13:39:00;24.20;1.00
6174;DHT22;3120;48.796;9.796;2022-07-29T13:41:28;24.30;1.00
6174;DHT22;3120;48.796;9.796;2022-07-29T13:43:54;24.20;1.00
6174;DHT22;3120;48.796;9.796;2022-07-29T13:46:20;24.00;1.00
6174;DHT22;3120;48.796;9.796;2022-07-29T13:48:45;23.90;1.00
6174;DHT22;3120;48.796;9.796;2022-07-29T13:51:11;23.80;99.90
6174;DHT22;3120;48.796;9.796;2022-07-29T13:53:37;23.80;1.00
6174;DHT22;3120;48.796;9.796;2022-07-29T13:56:03;23.80;1.00
6174;DHT22;3120;48.796;9.796;2022-07-29T13:58:31;23.90;99.90
6174;DHT22;3120;48.796;9.796;2022-07-29T14:00:58;24.00;99.90
6174;DHT22;3120;48.796;9.796;2022-07-29T14:03:24;24.10;1.00
6174;DHT22;3120;48.796;9.796;2022-07-29T14:05:59;24.00;99.90
6174;DHT22;3120;48.796;9.796;2022-07-29T14:08:28;23.90;99.90
6174;DHT22;3120;48.796;9.796;2022-07-29T14:10:53;23.90;99.90
6174;DHT22;3120;48.796;9.796;2022-07-29T14:13:19;23.80;1.00
6174;DHT22;3120;48.796;9.796;2022-07-29T14:15:44;24.00;99.90
6174;DHT22;3120;48.796;9.796;2022-07-29T14:18:10;23.70;99.90
6174;DHT22;3120;48.796;9.796;2022-07-29T14:20:36;23.50;99.90
6174;DHT22;3120;48.796;9.796;2022-07-29T14:23:02;23.40;99.90
6174;DHT22;3120;48.796;9.796;2022-07-29T14:25:33;23.40;99.90
6174;DHT22;3120;48.796;9.796;2022-07-29T14:27:59;23.30;99.90
6174;DHT22;3120;48.796;9.796;2022-07-29T14:30:25;23.30;99.90
6174;DHT22;3120;48.796;9.796;2022-07-29T14:32:50;23.40;1.00
6174;DHT22;3120;48.796;9.796;2022-07-29T14:35:16;23.40;1.00
6174;DHT22;3120;48.796;9.796;2022-07-29T14:37:42;23.40;1.00
6174;DHT22;3120;48.796;9.796;2022-07-29T14:40:08;23.40;1.00
6174;DHT22;3120;48.796;9.796;2022-07-29T14:42:34;23.40;1.00
6174;DHT22;3120;48.796;9.796;2022-07-29T14:45:01;23.20;1.00
6174;DHT22;3120;48.796;9.796;2022-07-29T14:47:27;23.20;1.00
6174;DHT22;3120;48.796;9.796;2022-07-29T14:49:52;23.20;99.90
6174;DHT22;3120;48.796;9.796;2022-07-29T14:52:18;23.20;99.90
6174;DHT22;3120;48.796;9.796;2022-07-29T14:54:47;23.10;99.90
6174;DHT22;3120;48.796;9.796;2022-07-29T14:57:13;23.00;99.90
6174;DHT22;3120;48.796;9.796;2022-07-29T14:59:39;22.90;1.00
6174;DHT22;3120;48.796;9.796;2022-07-29T15:02:08;22.80;1.00
6174;DHT22;3120;48.796;9.796;2022-07-29T15:04:34;22.70;99.90
6174;DHT22;3120;48.796;9.796;2022-07-29T15:07:00;22.70;1.00
6174;DHT22;3120;48.796;9.796;2022-07-29T15:09:26;22.70;57.30
6174;DHT22;3120;48.796;9.796;2022-07-29T15:11:51;22.70;99.90
6174;DHT22;3120;48.796;9.796;2022-07-29T15:14:17;22.70;99.90
6174;DHT22;3120;48.796;9.796;2022-07-29T15:16:42;22.70;1.00
6174;DHT22;3120;48.796;9.796;2022-07-29T15:19:08;22.90;99.90
6174;DHT22;3120;48.796;9.796;2022-07-29T15:21:34;22.80;99.90
6174;DHT22;3120;48.796;9.796;2022-07-29T15:24:00;22.80;1.00
6174;DHT22;3120;48.796;9.796;2022-07-29T15:26:26;22.80;1.00
6174;DHT22;3120;48.796;9.796;2022-07-29T15:28:51;22.70;56.80
6174;DHT22;3120;48.796;9.796;2022-07-29T15:31:17;22.80;1.00
6174;DHT22;3120;48.796;9.796;2022-07-29T15:33:44;22.80;99.90
6174;DHT22;3120;48.796;9.796;2022-07-29T15:36:10;22.90;99.90
6174;DHT22;3120;48.796;9.796;2022-07-29T15:38:37;23.00;99.90
6174;DHT22;3120;48.796;9.796;2022-07-29T15:41:04;23.00;99.90
6174;DHT22;3120;48.796;9.796;2022-07-29T15:43:30;23.00;1.00
6174;DHT22;3120;48.796;9.796;2022-07-29T15:45:55;23.00;99.90
6174;DHT22;3120;48.796;9.796;2022-07-29T15:48:40;23.00;1.00
6174;DHT22;3120;48.796;9.796;2022-07-29T15:51:05;23.00;1.00
6174;DHT22;3120;48.796;9.796;2022-07-29T15:53:31;23.10;1.00
6174;DHT22;3120;48.796;9.796;2022-07-29T15:55:59;23.00;1.00
6174;DHT22;3120;48.796;9.796;2022-07-29T15:58:25;23.00;99.90
6174;DHT22;3120;48.796;9.796;2022-07-29T16:00:50;22.90;1.00
6174;DHT22;3120;48.796;9.796;2022-07-29T16:03:16;22.90;99.90
6174;DHT22;3120;48.796;9.796;2022-07-29T16:05:42;23.00;99.90
6174;DHT22;3120;48.796;9.796;2022-07-29T16:08:07;23.00;99.90
6174;DHT22;3120;48.796;9.796;2022-07-29T16:10:33;23.00;99.90
6174;DHT22;3120;48.796;9.796;2022-07-29T16:12:59;23.00;17.80
6174;DHT22;3120;48.796;9.796;2022-07-29T16:15:24;23.00;99.90
6174;DHT22;3120;48.796;9.796;2022-07-29T16:17:50;22.90;1.00
6174;DHT22;3120;48.796;9.796;2022-07-29T16:20:16;22.80;54.60
6174;DHT22;3120;48.796;9.796;2022-07-29T16:22:42;22.90;99.90
6174;DHT22;3120;48.796;9.796;2022-07-29T16:25:08;22.80;1.00
6174;DHT22;3120;48.796;9.796;2022-07-29T16:27:33;22.90;39.30
6174;DHT22;3120;48.796;9.796;2022-07-29T16:29:59;22.90;1.00
6174;DHT22;3120;48.796;9.796;2022-07-29T16:32:25;22.90;1.00
6174;DHT22;3120;48.796;9.796;2022-07-29T16:34:50;22.90;1.00
6174;DHT22;3120;48.796;9.796;2022-07-29T16:37:16;22.90;1.00
6174;DHT22;3120;48.796;9.796;2022-07-29T16:39:42;22.90;99.90
6174;DHT22;3120;48.796;9.796;2022-07-29T16:42:08;22.90;99.90
6174;DHT22;3120;48.796;9.796;2022-07-29T16:44:34;22.90;99.90
6174;DHT22;3120;48.796;9.796;2022-07-29T16:46:59;22.90;99.90
6174;DHT22;3120;48.796;9.796;2022-07-29T16:49:26;22.90;99.90
6174;DHT22;3120;48.796;9.796;2022-07-29T16:51:51;22.90;20.70